sensor_id;sensor_type;location;lat;lon;timestamp;P1;durP1;ratioP1;P2;durP2;ratioP2
32295;SDS011;18781;51.550;5.418;2023-01-29T00:00:38;49.20;;;24.48;;
32295;SDS011;18781;51.550;5.418;2023-01-29T00:03:04;46.38;;;24.90;;
32295;SDS011;18781;51.550;5.418;2023-01-29T00:05:29;45.30;;;23.38;;
32295;SDS011;18781;51.550;5.418;2023-01-29T00:07:55;48.20;;;23.90;;
32295;SDS011;18781;51.550;5.418;2023-01-29T00:10:21;47.75;;;24.65;;
32295;SDS011;18781;51.550;5.418;2023-01-29T00:12:48;47.17;;;24.48;;
32295;SDS011;18781;51.550;5.418;2023-01-29T00:15:15;49.55;;;23.40;;
32295;SDS011;18781;51.550;5.418;2023-01-29T00:17:41;50.58;;;23.77;;
32295;SDS011;18781;51.550;5.418;2023-01-29T00:20:07;43.70;;;22.55;;
32295;SDS011;18781;51.550;5.418;2023-01-29T00:22:33;45.65;;;23.42;;
32295;SDS011;18781;51.550;5.418;2023-01-29T00:24:59;44.95;;;23.05;;
32295;SDS011;18781;51.550;5.418;2023-01-29T00:27:24;42.67;;;22.15;;
32295;SDS011;18781;51.550;5.418;2023-01-29T00:29:50;42.75;;;22.20;;
32295;SDS011;18781;51.550;5.418;2023-01-29T00:32:33;42.17;;;22.13;;
32295;SDS011;18781;51.550;5.418;2023-01-29T00:34:59;42.33;;;21.63;;
32295;SDS011;18781;51.550;5.418;2023-01-29T00:37:25;45.25;;;22.50;;
32295;SDS011;18781;51.550;5.418;2023-01-29T00:39:51;40.92;;;22.20;;
32295;SDS011;18781;51.550;5.418;2023-01-29T00:42:16;41.22;;;21.00;;
32295;SDS011;18781;51.550;5.418;2023-01-29T00:45:00;44.83;;;23.77;;
32295;SDS011;18781;51.550;5.418;2023-01-29T00:47:26;42.15;;;22.00;;
32295;SDS011;18781;51.550;5.418;2023-01-29T00:49:54;43.53;;;22.33;;
32295;SDS011;18781;51.550;5.418;2023-01-29T00:52:21;42.65;;;21.38;;
32295;SDS011;18781;51.550;5.418;2023-01-29T00:54:50;43.20;;;21.70;;
32295;SDS011;18781;51.550;5.418;2023-01-29T00:57:16;44.15;;;22.75;;
32295;SDS011;18781;51.550;5.418;2023-01-29T00:59:42;42.22;;;21.50;;
32295;SDS011;18781;51.550;5.418;2023-01-29T01:02:08;44.33;;;22.40;;
32295;SDS011;18781;51.550;5.418;2023-01-29T01:04:52;47.28;;;23.08;;
32295;SDS011;18781;51.550;5.418;2023-01-29T01:07:18;45.42;;;23.10;;
32295;SDS011;18781;51.550;5.418;2023-01-29T01:09:44;45.03;;;21.67;;
32295;SDS011;18781;51.550;5.418;2023-01-29T01:12:28;45.20;;;22.23;;
32295;SDS011;18781;51.550;5.418;2023-01-29T01:14:54;44.28;;;22.98;;
32295;SDS011;18781;51.550;5.418;2023-01-29T01:17:19;43.53;;;22.13;;
32295;SDS011;18781;51.550;5.418;2023-01-29T01:19:45;41.78;;;21.52;;
32295;SDS011;18781;51.550;5.418;2023-01-29T01:22:11;47.33;;;23.67;;
32295;SDS011;18781;51.550;5.418;2023-01-29T01:24:37;48.50;;;23.20;;
32295;SDS011;18781;51.550;5.418;2023-01-29T01:27:03;43.05;;;22.73;;
32295;SDS011;18781;51.550;5.418;2023-01-29T01:29:28;41.63;;;21.20;;
32295;SDS011;18781;51.550;5.418;2023-01-29T01:31:54;44.95;;;23.40;;
32295;SDS011;18781;51.550;5.418;2023-01-29T01:34:19;45.13;;;21.30;;
32295;SDS011;18781;51.550;5.418;2023-01-29T01:36:46;42.50;;;22.80;;
32295;SDS011;18781;51.550;5.418;2023-01-29T01:39:12;45.25;;;22.98;;
32295;SDS011;18781;51.550;5.418;2023-01-29T01:41:37;43.63;;;21.88;;
32295;SDS011;18781;51.550;5.418;2023-01-29T01:44:03;43.72;;;23.05;;
32295;SDS011;18781;51.550;5.418;2023-01-29T01:46:31;49.55;;;24.45;;
32295;SDS011;18781;51.550;5.418;2023-01-29T01:49:07;49.53;;;24.33;;
32295;SDS011;18781;51.550;5.418;2023-01-29T01:51:37;44.55;;;23.33;;
32295;SDS011;18781;51.550;5.418;2023-01-29T01:54:08;43.72;;;21.52;;
32295;SDS011;18781;51.550;5.418;2023-01-29T01:56:40;43.92;;;23.40;;
32295;SDS011;18781;51.550;5.418;2023-01-29T01:59:11;49.83;;;24.75;;
32295;SDS011;18781;51.550;5.418;2023-01-29T02:01:40;47.65;;;23.92;;
32295;SDS011;18781;51.550;5.418;2023-01-29T02:04:12;48.30;;;24.35;;
32295;SDS011;18781;51.550;5.418;2023-01-29T02:07:03;49.00;;;23.95;;
32295;SDS011;18781;51.550;5.418;2023-01-29T02:09:55;48.47;;;24.55;;
32295;SDS011;18781;51.550;5.418;2023-01-29T02:12:29;48.05;;;24.05;;
32295;SDS011;18781;51.550;5.418;2023-01-29T02:14:56;49.95;;;24.65;;
32295;SDS011;18781;51.550;5.418;2023-01-29T02:17:21;51.40;;;25.67;;
32295;SDS011;18781;51.550;5.418;2023-01-29T02:22:35;52.15;;;25.85;;
32295;SDS011;18781;51.550;5.418;2023-01-29T02:30:10;48.15;;;24.83;;
32295;SDS011;18781;51.550;5.418;2023-01-29T02:32:48;61.55;;;28.65;;
32295;SDS011;18781;51.550;5.418;2023-01-29T02:35:34;66.03;;;29.25;;
32295;SDS011;18781;51.550;5.418;2023-01-29T02:40:56;54.05;;;25.20;;
32295;SDS011;18781;51.550;5.418;2023-01-29T02:43:38;52.72;;;25.10;;
32295;SDS011;18781;51.550;5.418;2023-01-29T02:49:05;51.20;;;25.50;;
32295;SDS011;18781;51.550;5.418;2023-01-29T02:51:46;54.88;;;26.33;;
32295;SDS011;18781;51.550;5.418;2023-01-29T02:57:20;51.00;;;25.83;;
32295;SDS011;18781;51.550;5.418;2023-01-29T03:02:19;52.60;;;25.98;;
32295;SDS011;18781;51.550;5.418;2023-01-29T03:05:02;56.88;;;27.45;;
32295;SDS011;18781;51.550;5.418;2023-01-29T03:07:34;51.92;;;26.17;;
32295;SDS011;18781;51.550;5.418;2023-01-29T03:10:18;47.10;;;24.95;;
32295;SDS011;18781;51.550;5.418;2023-01-29T03:18:48;52.58;;;25.65;;
32295;SDS011;18781;51.550;5.418;2023-01-29T03:21:24;48.92;;;24.88;;
32295;SDS011;18781;51.550;5.418;2023-01-29T03:24:17;53.05;;;26.05;;
32295;SDS011;18781;51.550;5.418;2023-01-29T03:27:25;51.88;;;24.77;;
32295;SDS011;18781;51.550;5.418;2023-01-29T03:30:13;48.95;;;24.55;;
32295;SDS011;18781;51.550;5.418;2023-01-29T03:33:02;54.00;;;25.92;;
32295;SDS011;18781;51.550;5.418;2023-01-29T03:35:30;49.65;;;25.77;;
32295;SDS011;18781;51.550;5.418;2023-01-29T03:38:04;51.58;;;26.00;;
32295;SDS011;18781;51.550;5.418;2023-01-29T03:40:35;49.97;;;25.38;;
32295;SDS011;18781;51.550;5.418;2023-01-29T03:43:09;49.40;;;25.42;;
32295;SDS011;18781;51.550;5.418;2023-01-29T03:45:52;51.80;;;26.00;;
32295;SDS011;18781;51.550;5.418;2023-01-29T03:49:17;51.13;;;26.23;;
32295;SDS011;18781;51.550;5.418;2023-01-29T03:54:38;49.08;;;24.05;;
32295;SDS011;18781;51.550;5.418;2023-01-29T03:57:35;55.15;;;26.85;;
32295;SDS011;18781;51.550;5.418;2023-01-29T04:00:26;51.13;;;26.00;;
32295;SDS011;18781;51.550;5.418;2023-01-29T04:03:01;52.33;;;25.77;;
32295;SDS011;18781;51.550;5.418;2023-01-29T04:05:39;49.92;;;25.65;;
32295;SDS011;18781;51.550;5.418;2023-01-29T04:08:13;53.40;;;26.42;;
32295;SDS011;18781;51.550;5.418;2023-01-29T04:10:44;53.42;;;25.67;;
32295;SDS011;18781;51.550;5.418;2023-01-29T04:13:12;52.13;;;25.90;;
32295;SDS011;18781;51.550;5.418;2023-01-29T04:15:41;52.28;;;26.23;;
32295;SDS011;18781;51.550;5.418;2023-01-29T04:18:11;55.10;;;27.80;;
32295;SDS011;18781;51.550;5.418;2023-01-29T04:20:37;51.33;;;25.15;;
32295;SDS011;18781;51.550;5.418;2023-01-29T04:23:04;54.95;;;27.17;;
32295;SDS011;18781;51.550;5.418;2023-01-29T04:25:33;51.75;;;26.13;;
32295;SDS011;18781;51.550;5.418;2023-01-29T04:41:49;52.53;;;26.40;;
32295;SDS011;18781;51.550;5.418;2023-01-29T04:44:27;56.88;;;26.75;;
32295;SDS011;18781;51.550;5.418;2023-01-29T04:52:25;54.22;;;27.55;;
32295;SDS011;18781;51.550;5.418;2023-01-29T04:58:02;59.67;;;28.90;;
32295;SDS011;18781;51.550;5.418;2023-01-29T05:00:48;58.33;;;28.50;;
32295;SDS011;18781;51.550;5.418;2023-01-29T05:05:44;61.00;;;29.00;;
32295;SDS011;18781;51.550;5.418;2023-01-29T05:08:12;62.60;;;29.70;;
32295;SDS011;18781;51.550;5.418;2023-01-29T05:10:41;57.95;;;28.83;;
32295;SDS011;18781;51.550;5.418;2023-01-29T05:13:09;64.47;;;30.60;;
32295;SDS011;18781;51.550;5.418;2023-01-29T05:15:38;61.28;;;29.75;;
32295;SDS011;18781;51.550;5.418;2023-01-29T05:18:08;61.20;;;29.25;;
32295;SDS011;18781;51.550;5.418;2023-01-29T05:20:35;60.25;;;29.95;;
32295;SDS011;18781;51.550;5.418;2023-01-29T05:23:03;63.17;;;30.73;;
32295;SDS011;18781;51.550;5.418;2023-01-29T05:25:30;60.22;;;29.92;;
32295;SDS011;18781;51.550;5.418;2023-01-29T05:27:57;61.00;;;30.00;;
32295;SDS011;18781;51.550;5.418;2023-01-29T05:30:36;60.90;;;31.25;;
32295;SDS011;18781;51.550;5.418;2023-01-29T05:33:03;62.25;;;31.30;;
32295;SDS011;18781;51.550;5.418;2023-01-29T05:35:35;62.83;;;30.67;;
32295;SDS011;18781;51.550;5.418;2023-01-29T05:38:01;62.80;;;31.58;;
32295;SDS011;18781;51.550;5.418;2023-01-29T05:40:26;63.17;;;31.05;;
32295;SDS011;18781;51.550;5.418;2023-01-29T05:42:52;66.25;;;30.67;;
32295;SDS011;18781;51.550;5.418;2023-01-29T05:45:17;63.33;;;31.65;;
32295;SDS011;18781;51.550;5.418;2023-01-29T05:47:44;65.43;;;32.03;;
32295;SDS011;18781;51.550;5.418;2023-01-29T05:50:10;64.93;;;32.30;;
32295;SDS011;18781;51.550;5.418;2023-01-29T05:52:36;61.97;;;31.20;;
32295;SDS011;18781;51.550;5.418;2023-01-29T05:55:02;64.50;;;32.03;;
32295;SDS011;18781;51.550;5.418;2023-01-29T05:57:28;64.32;;;31.90;;
32295;SDS011;18781;51.550;5.418;2023-01-29T05:59:54;61.60;;;31.48;;
32295;SDS011;18781;51.550;5.418;2023-01-29T06:02:19;65.13;;;32.42;;
32295;SDS011;18781;51.550;5.418;2023-01-29T06:04:45;63.08;;;32.13;;
32295;SDS011;18781;51.550;5.418;2023-01-29T06:07:10;68.55;;;33.28;;
32295;SDS011;18781;51.550;5.418;2023-01-29T06:09:36;68.22;;;32.75;;
32295;SDS011;18781;51.550;5.418;2023-01-29T06:12:02;61.88;;;32.63;;
32295;SDS011;18781;51.550;5.418;2023-01-29T06:14:30;63.15;;;31.35;;
32295;SDS011;18781;51.550;5.418;2023-01-29T06:16:55;65.22;;;32.67;;
32295;SDS011;18781;51.550;5.418;2023-01-29T06:19:21;66.57;;;32.83;;
32295;SDS011;18781;51.550;5.418;2023-01-29T06:21:47;64.20;;;31.58;;
32295;SDS011;18781;51.550;5.418;2023-01-29T06:24:12;63.78;;;32.58;;
32295;SDS011;18781;51.550;5.418;2023-01-29T06:26:38;63.72;;;32.95;;
32295;SDS011;18781;51.550;5.418;2023-01-29T06:29:03;62.67;;;33.47;;
32295;SDS011;18781;51.550;5.418;2023-01-29T06:31:29;69.18;;;34.45;;
32295;SDS011;18781;51.550;5.418;2023-01-29T06:33:55;66.88;;;33.33;;
32295;SDS011;18781;51.550;5.418;2023-01-29T06:36:21;66.78;;;34.17;;
32295;SDS011;18781;51.550;5.418;2023-01-29T06:38:46;62.72;;;32.35;;
32295;SDS011;18781;51.550;5.418;2023-01-29T06:41:13;67.03;;;34.00;;
32295;SDS011;18781;51.550;5.418;2023-01-29T06:43:45;69.03;;;34.97;;
32295;SDS011;18781;51.550;5.418;2023-01-29T06:46:10;70.28;;;35.10;;
32295;SDS011;18781;51.550;5.418;2023-01-29T06:48:36;71.13;;;35.58;;
32295;SDS011;18781;51.550;5.418;2023-01-29T06:51:05;67.65;;;35.70;;
32295;SDS011;18781;51.550;5.418;2023-01-29T06:53:33;72.70;;;35.50;;
32295;SDS011;18781;51.550;5.418;2023-01-29T06:55:59;67.47;;;34.75;;
32295;SDS011;18781;51.550;5.418;2023-01-29T06:58:25;70.43;;;35.42;;
32295;SDS011;18781;51.550;5.418;2023-01-29T07:00:51;74.00;;;36.67;;
32295;SDS011;18781;51.550;5.418;2023-01-29T07:03:17;68.85;;;35.00;;
32295;SDS011;18781;51.550;5.418;2023-01-29T07:05:42;69.15;;;35.03;;
32295;SDS011;18781;51.550;5.418;2023-01-29T07:08:14;67.63;;;34.05;;
32295;SDS011;18781;51.550;5.418;2023-01-29T07:10:39;73.13;;;35.30;;
32295;SDS011;18781;51.550;5.418;2023-01-29T07:13:05;65.57;;;33.95;;
32295;SDS011;18781;51.550;5.418;2023-01-29T07:15:30;67.80;;;35.22;;
32295;SDS011;18781;51.550;5.418;2023-01-29T07:17:56;65.20;;;33.45;;
32295;SDS011;18781;51.550;5.418;2023-01-29T07:20:27;69.32;;;33.13;;
32295;SDS011;18781;51.550;5.418;2023-01-29T07:22:53;67.90;;;34.75;;
32295;SDS011;18781;51.550;5.418;2023-01-29T07:25:20;65.30;;;32.92;;
32295;SDS011;18781;51.550;5.418;2023-01-29T07:27:46;65.93;;;33.33;;
32295;SDS011;18781;51.550;5.418;2023-01-29T07:30:12;66.95;;;33.65;;
32295;SDS011;18781;51.550;5.418;2023-01-29T07:32:38;67.45;;;33.20;;
32295;SDS011;18781;51.550;5.418;2023-01-29T07:35:04;64.55;;;33.78;;
32295;SDS011;18781;51.550;5.418;2023-01-29T07:37:30;68.03;;;35.10;;
32295;SDS011;18781;51.550;5.418;2023-01-29T07:39:56;70.28;;;34.22;;
32295;SDS011;18781;51.550;5.418;2023-01-29T07:42:21;64.32;;;33.40;;
32295;SDS011;18781;51.550;5.418;2023-01-29T07:44:47;69.72;;;33.78;;
32295;SDS011;18781;51.550;5.418;2023-01-29T07:47:13;64.05;;;33.05;;
32295;SDS011;18781;51.550;5.418;2023-01-29T07:49:38;69.65;;;34.03;;
32295;SDS011;18781;51.550;5.418;2023-01-29T07:52:04;67.35;;;33.60;;
32295;SDS011;18781;51.550;5.418;2023-01-29T07:54:29;65.43;;;34.05;;
32295;SDS011;18781;51.550;5.418;2023-01-29T07:56:55;66.30;;;33.03;;
32295;SDS011;18781;51.550;5.418;2023-01-29T07:59:21;64.93;;;34.20;;
32295;SDS011;18781;51.550;5.418;2023-01-29T08:01:46;66.80;;;33.70;;
32295;SDS011;18781;51.550;5.418;2023-01-29T08:04:12;67.72;;;32.78;;
32295;SDS011;18781;51.550;5.418;2023-01-29T08:06:38;71.65;;;34.80;;
32295;SDS011;18781;51.550;5.418;2023-01-29T08:09:03;72.30;;;35.58;;
32295;SDS011;18781;51.550;5.418;2023-01-29T08:11:29;69.40;;;33.97;;
32295;SDS011;18781;51.550;5.418;2023-01-29T08:13:54;69.75;;;32.35;;
32295;SDS011;18781;51.550;5.418;2023-01-29T08:16:21;65.75;;;33.13;;
32295;SDS011;18781;51.550;5.418;2023-01-29T08:18:46;67.28;;;34.33;;
32295;SDS011;18781;51.550;5.418;2023-01-29T08:21:12;61.50;;;32.78;;
32295;SDS011;18781;51.550;5.418;2023-01-29T08:23:39;64.30;;;32.83;;
32295;SDS011;18781;51.550;5.418;2023-01-29T08:26:05;65.80;;;33.70;;
32295;SDS011;18781;51.550;5.418;2023-01-29T08:28:30;67.07;;;32.05;;
32295;SDS011;18781;51.550;5.418;2023-01-29T08:30:56;62.30;;;31.80;;
32295;SDS011;18781;51.550;5.418;2023-01-29T08:33:22;65.50;;;33.15;;
32295;SDS011;18781;51.550;5.418;2023-01-29T08:35:49;64.22;;;31.40;;
32295;SDS011;18781;51.550;5.418;2023-01-29T08:38:16;64.97;;;31.52;;
32295;SDS011;18781;51.550;5.418;2023-01-29T08:40:42;63.75;;;32.90;;
32295;SDS011;18781;51.550;5.418;2023-01-29T08:43:09;65.63;;;32.50;;
32295;SDS011;18781;51.550;5.418;2023-01-29T08:45:37;51.50;;;24.33;;
32295;SDS011;18781;51.550;5.418;2023-01-29T08:48:05;62.95;;;32.25;;
32295;SDS011;18781;51.550;5.418;2023-01-29T08:50:30;65.55;;;32.10;;
32295;SDS011;18781;51.550;5.418;2023-01-29T08:52:58;65.03;;;32.70;;
32295;SDS011;18781;51.550;5.418;2023-01-29T08:55:25;64.32;;;32.50;;
32295;SDS011;18781;51.550;5.418;2023-01-29T08:57:51;62.97;;;31.63;;
32295;SDS011;18781;51.550;5.418;2023-01-29T09:00:17;65.03;;;32.65;;
32295;SDS011;18781;51.550;5.418;2023-01-29T09:02:43;63.00;;;31.20;;
32295;SDS011;18781;51.550;5.418;2023-01-29T09:05:08;62.33;;;31.88;;
32295;SDS011;18781;51.550;5.418;2023-01-29T09:07:34;63.33;;;31.25;;
32295;SDS011;18781;51.550;5.418;2023-01-29T09:10:00;60.95;;;30.85;;
32295;SDS011;18781;51.550;5.418;2023-01-29T09:12:25;61.17;;;31.08;;
32295;SDS011;18781;51.550;5.418;2023-01-29T09:14:51;61.90;;;30.75;;
32295;SDS011;18781;51.550;5.418;2023-01-29T09:17:17;62.40;;;30.55;;
32295;SDS011;18781;51.550;5.418;2023-01-29T09:19:42;61.63;;;31.60;;
32295;SDS011;18781;51.550;5.418;2023-01-29T09:22:08;58.55;;;29.73;;
32295;SDS011;18781;51.550;5.418;2023-01-29T09:24:33;58.97;;;29.20;;
32295;SDS011;18781;51.550;5.418;2023-01-29T09:26:59;56.10;;;30.13;;
32295;SDS011;18781;51.550;5.418;2023-01-29T09:29:25;57.08;;;29.20;;
32295;SDS011;18781;51.550;5.418;2023-01-29T09:31:51;61.47;;;29.77;;
32295;SDS011;18781;51.550;5.418;2023-01-29T09:34:16;62.50;;;28.90;;
32295;SDS011;18781;51.550;5.418;2023-01-29T09:36:42;55.95;;;28.60;;
32295;SDS011;18781;51.550;5.418;2023-01-29T09:39:08;56.17;;;27.95;;
32295;SDS011;18781;51.550;5.418;2023-01-29T09:41:49;53.00;;;27.45;;
32295;SDS011;18781;51.550;5.418;2023-01-29T09:44:32;57.05;;;27.35;;
32295;SDS011;18781;51.550;5.418;2023-01-29T09:47:18;54.35;;;27.10;;
32295;SDS011;18781;51.550;5.418;2023-01-29T09:49:48;62.17;;;28.58;;
32295;SDS011;18781;51.550;5.418;2023-01-29T09:52:40;51.63;;;26.48;;
32295;SDS011;18781;51.550;5.418;2023-01-29T09:55:19;60.83;;;29.42;;
32295;SDS011;18781;51.550;5.418;2023-01-29T09:57:57;50.35;;;26.08;;
32295;SDS011;18781;51.550;5.418;2023-01-29T10:06:19;58.03;;;32.33;;
32295;SDS011;18781;51.550;5.418;2023-01-29T10:11:50;54.58;;;27.23;;
32295;SDS011;18781;51.550;5.418;2023-01-29T10:25:54;49.70;;;25.67;;
32295;SDS011;18781;51.550;5.418;2023-01-29T10:31:06;49.45;;;24.88;;
32295;SDS011;18781;51.550;5.418;2023-01-29T10:33:46;51.55;;;26.33;;
32295;SDS011;18781;51.550;5.418;2023-01-29T10:36:16;46.33;;;24.70;;
32295;SDS011;18781;51.550;5.418;2023-01-29T10:38:47;47.92;;;24.33;;
32295;SDS011;18781;51.550;5.418;2023-01-29T10:41:35;44.63;;;24.73;;
32295;SDS011;18781;51.550;5.418;2023-01-29T10:55:51;53.95;;;27.88;;
32295;SDS011;18781;51.550;5.418;2023-01-29T11:01:34;49.72;;;24.05;;
32295;SDS011;18781;51.550;5.418;2023-01-29T11:04:01;52.00;;;26.38;;
32295;SDS011;18781;51.550;5.418;2023-01-29T11:06:29;50.05;;;27.60;;
32295;SDS011;18781;51.550;5.418;2023-01-29T11:09:17;48.65;;;24.40;;
32295;SDS011;18781;51.550;5.418;2023-01-29T11:11:47;46.75;;;25.73;;
32295;SDS011;18781;51.550;5.418;2023-01-29T11:14:23;43.90;;;22.88;;
32295;SDS011;18781;51.550;5.418;2023-01-29T11:16:52;60.08;;;29.83;;
32295;SDS011;18781;51.550;5.418;2023-01-29T11:19:18;46.33;;;23.75;;
32295;SDS011;18781;51.550;5.418;2023-01-29T11:22:04;44.92;;;24.08;;
32295;SDS011;18781;51.550;5.418;2023-01-29T11:24:36;45.90;;;22.83;;
32295;SDS011;18781;51.550;5.418;2023-01-29T11:27:02;42.05;;;20.92;;
32295;SDS011;18781;51.550;5.418;2023-01-29T11:32:13;54.13;;;29.75;;
32295;SDS011;18781;51.550;5.418;2023-01-29T11:34:55;54.58;;;28.80;;
32295;SDS011;18781;51.550;5.418;2023-01-29T11:37:20;48.72;;;25.17;;
32295;SDS011;18781;51.550;5.418;2023-01-29T11:39:46;42.78;;;22.25;;
32295;SDS011;18781;51.550;5.418;2023-01-29T11:42:18;46.13;;;22.92;;
32295;SDS011;18781;51.550;5.418;2023-01-29T11:44:45;47.95;;;27.38;;
32295;SDS011;18781;51.550;5.418;2023-01-29T11:47:20;46.42;;;24.50;;
32295;SDS011;18781;51.550;5.418;2023-01-29T11:49:51;51.80;;;25.83;;
32295;SDS011;18781;51.550;5.418;2023-01-29T11:52:52;43.43;;;22.30;;
32295;SDS011;18781;51.550;5.418;2023-01-29T11:55:13;43.05;;;22.20;;
32295;SDS011;18781;51.550;5.418;2023-01-29T11:57:45;50.95;;;24.85;;
32295;SDS011;18781;51.550;5.418;2023-01-29T12:00:16;44.50;;;23.52;;
32295;SDS011;18781;51.550;5.418;2023-01-29T12:05:15;105.10;;;47.65;;
32295;SDS011;18781;51.550;5.418;2023-01-29T12:07:43;69.00;;;35.70;;
32295;SDS011;18781;51.550;5.418;2023-01-29T12:13:02;44.53;;;24.20;;
32295;SDS011;18781;51.550;5.418;2023-01-29T12:15:38;43.33;;;23.42;;
32295;SDS011;18781;51.550;5.418;2023-01-29T12:18:12;41.47;;;21.55;;
32295;SDS011;18781;51.550;5.418;2023-01-29T12:20:50;41.13;;;22.73;;
32295;SDS011;18781;51.550;5.418;2023-01-29T12:23:45;43.08;;;23.13;;
32295;SDS011;18781;51.550;5.418;2023-01-29T12:26:24;45.10;;;23.42;;
32295;SDS011;18781;51.550;5.418;2023-01-29T12:31:53;41.83;;;22.35;;
32295;SDS011;18781;51.550;5.418;2023-01-29T12:34:32;44.67;;;23.63;;
32295;SDS011;18781;51.550;5.418;2023-01-29T12:39:45;45.17;;;23.48;;
32295;SDS011;18781;51.550;5.418;2023-01-29T12:44:45;46.90;;;24.67;;
32295;SDS011;18781;51.550;5.418;2023-01-29T12:49:56;45.22;;;25.27;;
32295;SDS011;18781;51.550;5.418;2023-01-29T12:52:35;45.70;;;24.90;;
32295;SDS011;18781;51.550;5.418;2023-01-29T12:57:43;50.83;;;27.05;;
32295;SDS011;18781;51.550;5.418;2023-01-29T13:00:24;49.23;;;24.83;;
32295;SDS011;18781;51.550;5.418;2023-01-29T13:05:44;53.58;;;28.40;;
32295;SDS011;18781;51.550;5.418;2023-01-29T13:08:26;48.05;;;26.23;;
32295;SDS011;18781;51.550;5.418;2023-01-29T13:10:56;48.42;;;26.45;;
32295;SDS011;18781;51.550;5.418;2023-01-29T13:13:35;49.55;;;26.42;;
32295;SDS011;18781;51.550;5.418;2023-01-29T13:16:17;57.70;;;26.42;;
32295;SDS011;18781;51.550;5.418;2023-01-29T13:21:29;50.03;;;28.45;;
32295;SDS011;18781;51.550;5.418;2023-01-29T13:24:01;55.33;;;27.77;;
32295;SDS011;18781;51.550;5.418;2023-01-29T13:26:29;50.75;;;26.75;;
32295;SDS011;18781;51.550;5.418;2023-01-29T13:28:55;55.88;;;28.42;;
32295;SDS011;18781;51.550;5.418;2023-01-29T13:31:29;50.80;;;27.77;;
32295;SDS011;18781;51.550;5.418;2023-01-29T13:34:05;52.90;;;28.27;;
32295;SDS011;18781;51.550;5.418;2023-01-29T13:36:32;53.03;;;27.17;;
32295;SDS011;18781;51.550;5.418;2023-01-29T13:39:00;52.08;;;28.13;;
32295;SDS011;18781;51.550;5.418;2023-01-29T13:41:33;57.17;;;28.38;;
32295;SDS011;18781;51.550;5.418;2023-01-29T13:44:05;54.72;;;28.77;;
32295;SDS011;18781;51.550;5.418;2023-01-29T13:46:41;50.40;;;27.27;;
32295;SDS011;18781;51.550;5.418;2023-01-29T13:49:23;52.58;;;29.55;;
32295;SDS011;18781;51.550;5.418;2023-01-29T13:51:52;53.05;;;27.40;;
32295;SDS011;18781;51.550;5.418;2023-01-29T13:54:19;55.08;;;29.67;;
32295;SDS011;18781;51.550;5.418;2023-01-29T14:02:23;53.17;;;29.70;;
32295;SDS011;18781;51.550;5.418;2023-01-29T14:04:51;52.92;;;29.40;;
32295;SDS011;18781;51.550;5.418;2023-01-29T14:10:28;59.92;;;29.80;;
32295;SDS011;18781;51.550;5.418;2023-01-29T14:15:42;61.28;;;30.70;;
32295;SDS011;18781;51.550;5.418;2023-01-29T14:23:23;60.92;;;30.85;;
32295;SDS011;18781;51.550;5.418;2023-01-29T14:26:04;60.05;;;30.65;;
32295;SDS011;18781;51.550;5.418;2023-01-29T14:28:45;58.38;;;31.15;;
32295;SDS011;18781;51.550;5.418;2023-01-29T14:31:28;59.70;;;31.48;;
32295;SDS011;18781;51.550;5.418;2023-01-29T14:33:58;59.22;;;30.60;;
32295;SDS011;18781;51.550;5.418;2023-01-29T14:36:25;59.47;;;29.95;;
32295;SDS011;18781;51.550;5.418;2023-01-29T14:38:51;55.97;;;30.25;;
32295;SDS011;18781;51.550;5.418;2023-01-29T14:41:39;58.67;;;30.65;;
32295;SDS011;18781;51.550;5.418;2023-01-29T14:47:17;57.60;;;31.10;;
32295;SDS011;18781;51.550;5.418;2023-01-29T14:49:49;60.55;;;31.15;;
32295;SDS011;18781;51.550;5.418;2023-01-29T14:52:17;58.83;;;28.55;;
32295;SDS011;18781;51.550;5.418;2023-01-29T14:55:00;58.60;;;30.63;;
32295;SDS011;18781;51.550;5.418;2023-01-29T14:57:29;59.00;;;31.67;;
32295;SDS011;18781;51.550;5.418;2023-01-29T14:59:59;62.55;;;30.92;;
32295;SDS011;18781;51.550;5.418;2023-01-29T15:02:52;59.42;;;31.38;;
32295;SDS011;18781;51.550;5.418;2023-01-29T15:05:21;55.13;;;29.35;;
32295;SDS011;18781;51.550;5.418;2023-01-29T15:10:26;62.85;;;31.25;;
32295;SDS011;18781;51.550;5.418;2023-01-29T15:13:03;69.57;;;35.28;;
32295;SDS011;18781;51.550;5.418;2023-01-29T15:18:14;56.58;;;30.75;;
32295;SDS011;18781;51.550;5.418;2023-01-29T15:20:46;57.45;;;30.33;;
32295;SDS011;18781;51.550;5.418;2023-01-29T15:25:54;62.65;;;32.75;;
32295;SDS011;18781;51.550;5.418;2023-01-29T15:28:21;57.10;;;30.08;;
32295;SDS011;18781;51.550;5.418;2023-01-29T15:30:51;59.15;;;32.30;;
32295;SDS011;18781;51.550;5.418;2023-01-29T15:33:20;54.58;;;29.65;;
32295;SDS011;18781;51.550;5.418;2023-01-29T15:35:45;54.90;;;29.90;;
32295;SDS011;18781;51.550;5.418;2023-01-29T15:38:21;60.92;;;31.77;;
32295;SDS011;18781;51.550;5.418;2023-01-29T15:40:54;56.60;;;31.65;;
32295;SDS011;18781;51.550;5.418;2023-01-29T15:45:48;58.45;;;31.58;;
32295;SDS011;18781;51.550;5.418;2023-01-29T15:48:17;51.65;;;27.38;;
32295;SDS011;18781;51.550;5.418;2023-01-29T15:50:50;49.42;;;27.58;;
32295;SDS011;18781;51.550;5.418;2023-01-29T15:53:19;53.60;;;28.93;;
32295;SDS011;18781;51.550;5.418;2023-01-29T15:55:49;51.60;;;28.40;;
32295;SDS011;18781;51.550;5.418;2023-01-29T15:58:19;56.63;;;29.73;;
32295;SDS011;18781;51.550;5.418;2023-01-29T16:00:52;50.58;;;27.70;;
32295;SDS011;18781;51.550;5.418;2023-01-29T16:03:20;50.70;;;28.65;;
32295;SDS011;18781;51.550;5.418;2023-01-29T16:05:48;52.42;;;28.85;;
32295;SDS011;18781;51.550;5.418;2023-01-29T16:08:15;57.50;;;28.95;;
32295;SDS011;18781;51.550;5.418;2023-01-29T16:10:42;48.20;;;26.52;;
32295;SDS011;18781;51.550;5.418;2023-01-29T16:13:19;62.00;;;32.85;;
32295;SDS011;18781;51.550;5.418;2023-01-29T16:15:57;54.08;;;27.90;;
32295;SDS011;18781;51.550;5.418;2023-01-29T16:18:32;52.70;;;27.00;;
32295;SDS011;18781;51.550;5.418;2023-01-29T16:21:03;47.97;;;26.23;;
32295;SDS011;18781;51.550;5.418;2023-01-29T16:23:40;49.05;;;26.10;;
32295;SDS011;18781;51.550;5.418;2023-01-29T16:26:31;48.25;;;25.25;;
32295;SDS011;18781;51.550;5.418;2023-01-29T16:29:03;50.40;;;24.67;;
32295;SDS011;18781;51.550;5.418;2023-01-29T16:31:31;53.78;;;25.40;;
32295;SDS011;18781;51.550;5.418;2023-01-29T16:33:57;47.38;;;24.50;;
32295;SDS011;18781;51.550;5.418;2023-01-29T16:36:24;51.33;;;25.73;;
32295;SDS011;18781;51.550;5.418;2023-01-29T16:38:53;49.83;;;25.05;;
32295;SDS011;18781;51.550;5.418;2023-01-29T16:43:57;47.60;;;23.50;;
32295;SDS011;18781;51.550;5.418;2023-01-29T16:51:56;50.13;;;23.75;;
32295;SDS011;18781;51.550;5.418;2023-01-29T16:54:42;41.63;;;22.42;;
32295;SDS011;18781;51.550;5.418;2023-01-29T16:57:13;43.97;;;22.70;;
32295;SDS011;18781;51.550;5.418;2023-01-29T16:59:44;40.10;;;21.70;;
32295;SDS011;18781;51.550;5.418;2023-01-29T17:02:18;40.58;;;22.30;;
32295;SDS011;18781;51.550;5.418;2023-01-29T17:04:55;42.53;;;22.60;;
32295;SDS011;18781;51.550;5.418;2023-01-29T17:07:26;39.00;;;21.45;;
32295;SDS011;18781;51.550;5.418;2023-01-29T17:09:53;42.70;;;23.55;;
32295;SDS011;18781;51.550;5.418;2023-01-29T17:12:23;44.25;;;22.58;;
32295;SDS011;18781;51.550;5.418;2023-01-29T17:14:54;39.97;;;22.63;;
32295;SDS011;18781;51.550;5.418;2023-01-29T17:17:29;45.00;;;22.80;;